sensor_id;sensor_type;location;lat;lon;timestamp;P1;durP1;ratioP1;P2;durP2;ratioP2
72960;SDS011;61141;46.204;19.774;2022-08-01T00:00:57;3.15;;;1.20;;
72960;SDS011;61141;46.204;19.774;2022-08-01T00:04:00;3.10;;;1.08;;
72960;SDS011;61141;46.204;19.774;2022-08-01T00:07:05;2.83;;;0.90;;
72960;SDS011;61141;46.204;19.774;2022-08-01T00:10:10;2.77;;;0.77;;
72960;SDS011;61141;46.204;19.774;2022-08-01T00:13:15;2.70;;;0.75;;
72960;SDS011;61141;46.204;19.774;2022-08-01T00:16:19;3.08;;;1.10;;
72960;SDS011;61141;46.204;19.774;2022-08-01T00:19:24;2.65;;;0.80;;
72960;SDS011;61141;46.204;19.774;2022-08-01T00:22:28;3.30;;;1.33;;
72960;SDS011;61141;46.204;19.774;2022-08-01T00:25:30;2.87;;;0.97;;
72960;SDS011;61141;46.204;19.774;2022-08-01T00:28:36;3.15;;;1.10;;
72960;SDS011;61141;46.204;19.774;2022-08-01T00:31:39;2.72;;;0.90;;
72960;SDS011;61141;46.204;19.774;2022-08-01T00:34:42;3.08;;;1.10;;
72960;SDS011;61141;46.204;19.774;2022-08-01T00:37:45;3.55;;;1.52;;
72960;SDS011;61141;46.204;19.774;2022-08-01T00:40:48;2.77;;;0.87;;
72960;SDS011;61141;46.204;19.774;2022-08-01T00:43:51;3.22;;;1.27;;
72960;SDS011;61141;46.204;19.774;2022-08-01T00:46:54;3.50;;;1.35;;
72960;SDS011;61141;46.204;19.774;2022-08-01T00:49:57;2.75;;;0.90;;
72960;SDS011;61141;46.204;19.774;2022-08-01T00:53:00;3.25;;;1.42;;
72960;SDS011;61141;46.204;19.774;2022-08-01T00:56:04;2.90;;;1.07;;
72960;SDS011;61141;46.204;19.774;2022-08-01T00:59:08;3.35;;;1.23;;
72960;SDS011;61141;46.204;19.774;2022-08-01T01:02:12;3.40;;;1.40;;
72960;SDS011;61141;46.204;19.774;2022-08-01T01:05:17;2.85;;;0.95;;
72960;SDS011;61141;46.204;19.774;2022-08-01T01:08:24;2.80;;;0.90;;
72960;SDS011;61141;46.204;19.774;2022-08-01T01:11:36;2.73;;;0.70;;
72960;SDS011;61141;46.204;19.774;2022-08-01T01:15:17;2.60;;;0.77;;
72960;SDS011;61141;46.204;19.774;2022-08-01T01:19:08;2.70;;;0.82;;
72960;SDS011;61141;46.204;19.774;2022-08-01T01:22:00;2.95;;;1.05;;
72960;SDS011;61141;46.204;19.774;2022-08-01T01:32:20;3.05;;;1.17;;
72960;SDS011;61141;46.204;19.774;2022-08-01T01:35:34;2.75;;;0.95;;
72960;SDS011;61141;46.204;19.774;2022-08-01T01:38:41;2.65;;;0.82;;
72960;SDS011;61141;46.204;19.774;2022-08-01T01:41:46;3.10;;;1.15;;
72960;SDS011;61141;46.204;19.774;2022-08-01T01:44:51;2.50;;;0.77;;
72960;SDS011;61141;46.204;19.774;2022-08-01T01:47:56;2.60;;;0.80;;
72960;SDS011;61141;46.204;19.774;2022-08-01T01:51:01;2.60;;;0.82;;
72960;SDS011;61141;46.204;19.774;2022-08-01T01:54:06;2.60;;;0.73;;
72960;SDS011;61141;46.204;19.774;2022-08-01T01:57:11;2.87;;;1.10;;
72960;SDS011;61141;46.204;19.774;2022-08-01T02:00:15;2.97;;;1.00;;
72960;SDS011;61141;46.204;19.774;2022-08-01T02:03:19;2.92;;;1.00;;
72960;SDS011;61141;46.204;19.774;2022-08-01T02:06:24;2.90;;;1.02;;
72960;SDS011;61141;46.204;19.774;2022-08-01T02:09:29;2.78;;;0.90;;
72960;SDS011;61141;46.204;19.774;2022-08-01T02:12:34;3.28;;;1.25;;
72960;SDS011;61141;46.204;19.774;2022-08-01T02:15:40;2.40;;;0.60;;
72960;SDS011;61141;46.204;19.774;2022-08-01T02:19:02;5.82;;;1.08;;
72960;SDS011;61141;46.204;19.774;2022-08-01T02:22:16;3.40;;;1.45;;
72960;SDS011;61141;46.204;19.774;2022-08-01T02:25:25;3.03;;;1.15;;
72960;SDS011;61141;46.204;19.774;2022-08-01T02:28:53;3.17;;;1.25;;
72960;SDS011;61141;46.204;19.774;2022-08-01T02:32:02;2.63;;;0.80;;
72960;SDS011;61141;46.204;19.774;2022-08-01T02:35:08;2.50;;;0.68;;
72960;SDS011;61141;46.204;19.774;2022-08-01T02:38:23;2.65;;;0.85;;
72960;SDS011;61141;46.204;19.774;2022-08-01T02:41:29;3.12;;;1.25;;
72960;SDS011;61141;46.204;19.774;2022-08-01T02:44:35;2.87;;;1.15;;
72960;SDS011;61141;46.204;19.774;2022-08-01T02:47:41;2.50;;;0.80;;
72960;SDS011;61141;46.204;19.774;2022-08-01T02:50:49;3.10;;;1.12;;
72960;SDS011;61141;46.204;19.774;2022-08-01T02:53:55;3.20;;;1.30;;
72960;SDS011;61141;46.204;19.774;2022-08-01T02:57:00;3.35;;;1.42;;
72960;SDS011;61141;46.204;19.774;2022-08-01T03:00:08;3.12;;;1.23;;
72960;SDS011;61141;46.204;19.774;2022-08-01T03:03:14;2.77;;;0.80;;
72960;SDS011;61141;46.204;19.774;2022-08-01T03:06:19;2.35;;;0.60;;
72960;SDS011;61141;46.204;19.774;2022-08-01T03:09:23;2.83;;;0.98;;
72960;SDS011;61141;46.204;19.774;2022-08-01T03:12:29;2.85;;;1.02;;
72960;SDS011;61141;46.204;19.774;2022-08-01T03:15:37;2.78;;;0.90;;
72960;SDS011;61141;46.204;19.774;2022-08-01T03:18:42;2.07;;;0.50;;
72960;SDS011;61141;46.204;19.774;2022-08-01T03:21:47;2.47;;;0.62;;
72960;SDS011;61141;46.204;19.774;2022-08-01T03:24:52;2.65;;;0.90;;
72960;SDS011;61141;46.204;19.774;2022-08-01T03:27:58;3.03;;;1.15;;
72960;SDS011;61141;46.204;19.774;2022-08-01T03:31:03;2.33;;;0.70;;
72960;SDS011;61141;46.204;19.774;2022-08-01T03:34:07;1.87;;;0.40;;
72960;SDS011;61141;46.204;19.774;2022-08-01T03:40:22;3.28;;;1.30;;
72960;SDS011;61141;46.204;19.774;2022-08-01T03:43:38;2.72;;;0.90;;
72960;SDS011;61141;46.204;19.774;2022-08-01T03:46:50;2.87;;;1.02;;
72960;SDS011;61141;46.204;19.774;2022-08-01T03:49:59;2.70;;;0.83;;
72960;SDS011;61141;46.204;19.774;2022-08-01T03:53:05;3.03;;;1.02;;
72960;SDS011;61141;46.204;19.774;2022-08-01T03:56:12;3.85;;;1.00;;
72960;SDS011;61141;46.204;19.774;2022-08-01T03:59:19;2.72;;;0.95;;
72960;SDS011;61141;46.204;19.774;2022-08-01T04:02:24;3.25;;;1.25;;
72960;SDS011;61141;46.204;19.774;2022-08-01T04:05:28;2.33;;;0.70;;
72960;SDS011;61141;46.204;19.774;2022-08-01T04:08:37;3.08;;;1.23;;
72960;SDS011;61141;46.204;19.774;2022-08-01T04:11:41;2.70;;;0.88;;
72960;SDS011;61141;46.204;19.774;2022-08-01T04:14:44;2.85;;;0.85;;
72960;SDS011;61141;46.204;19.774;2022-08-01T04:17:48;2.75;;;0.85;;
72960;SDS011;61141;46.204;19.774;2022-08-01T04:20:51;3.03;;;1.10;;
72960;SDS011;61141;46.204;19.774;2022-08-01T04:23:55;3.12;;;0.93;;
72960;SDS011;61141;46.204;19.774;2022-08-01T04:27:03;2.65;;;0.80;;
72960;SDS011;61141;46.204;19.774;2022-08-01T04:30:12;2.55;;;0.75;;
72960;SDS011;61141;46.204;19.774;2022-08-01T04:33:22;4.30;;;2.25;;
72960;SDS011;61141;46.204;19.774;2022-08-01T04:36:26;2.90;;;0.90;;
72960;SDS011;61141;46.204;19.774;2022-08-01T04:39:32;2.45;;;0.65;;
72960;SDS011;61141;46.204;19.774;2022-08-01T04:42:52;3.33;;;1.40;;
72960;SDS011;61141;46.204;19.774;2022-08-01T04:45:55;2.40;;;0.65;;
72960;SDS011;61141;46.204;19.774;2022-08-01T04:49:01;3.20;;;1.15;;
72960;SDS011;61141;46.204;19.774;2022-08-01T04:52:04;2.23;;;0.53;;
72960;SDS011;61141;46.204;19.774;2022-08-01T04:55:10;2.53;;;0.70;;
72960;SDS011;61141;46.204;19.774;2022-08-01T04:58:13;3.60;;;1.50;;
72960;SDS011;61141;46.204;19.774;2022-08-01T05:01:20;3.00;;;1.10;;
72960;SDS011;61141;46.204;19.774;2022-08-01T05:04:23;2.80;;;0.90;;
72960;SDS011;61141;46.204;19.774;2022-08-01T05:07:26;2.73;;;0.87;;
72960;SDS011;61141;46.204;19.774;2022-08-01T05:10:29;3.28;;;1.25;;
72960;SDS011;61141;46.204;19.774;2022-08-01T05:13:33;2.78;;;0.88;;
72960;SDS011;61141;46.204;19.774;2022-08-01T05:16:36;3.30;;;1.30;;
72960;SDS011;61141;46.204;19.774;2022-08-01T05:19:39;3.90;;;1.55;;
72960;SDS011;61141;46.204;19.774;2022-08-01T05:22:42;2.87;;;0.77;;
72960;SDS011;61141;46.204;19.774;2022-08-01T05:25:45;3.45;;;1.20;;
72960;SDS011;61141;46.204;19.774;2022-08-01T05:29:00;3.37;;;1.33;;
72960;SDS011;61141;46.204;19.774;2022-08-01T05:32:03;2.40;;;0.50;;
72960;SDS011;61141;46.204;19.774;2022-08-01T05:35:07;3.40;;;1.35;;
72960;SDS011;61141;46.204;19.774;2022-08-01T05:38:11;3.73;;;1.73;;
72960;SDS011;61141;46.204;19.774;2022-08-01T05:41:16;3.10;;;1.20;;
72960;SDS011;61141;46.204;19.774;2022-08-01T05:44:19;3.47;;;1.50;;
72960;SDS011;61141;46.204;19.774;2022-08-01T05:47:22;2.83;;;0.80;;
72960;SDS011;61141;46.204;19.774;2022-08-01T05:50:25;3.60;;;1.50;;
72960;SDS011;61141;46.204;19.774;2022-08-01T05:53:28;2.97;;;0.90;;
72960;SDS011;61141;46.204;19.774;2022-08-01T05:56:31;2.78;;;0.85;;
72960;SDS011;61141;46.204;19.774;2022-08-01T05:59:34;2.97;;;0.93;;
72960;SDS011;61141;46.204;19.774;2022-08-01T06:02:41;3.37;;;1.35;;
72960;SDS011;61141;46.204;19.774;2022-08-01T06:05:45;3.17;;;1.00;;
72960;SDS011;61141;46.204;19.774;2022-08-01T06:08:48;3.57;;;1.50;;
72960;SDS011;61141;46.204;19.774;2022-08-01T06:11:53;3.92;;;1.80;;
72960;SDS011;61141;46.204;19.774;2022-08-01T06:14:56;3.12;;;1.15;;
72960;SDS011;61141;46.204;19.774;2022-08-01T06:18:00;3.28;;;1.08;;
72960;SDS011;61141;46.204;19.774;2022-08-01T06:21:03;3.37;;;1.33;;
72960;SDS011;61141;46.204;19.774;2022-08-01T06:24:06;4.07;;;1.93;;
72960;SDS011;61141;46.204;19.774;2022-08-01T06:27:10;3.70;;;1.62;;
72960;SDS011;61141;46.204;19.774;2022-08-01T06:30:24;4.20;;;2.00;;
72960;SDS011;61141;46.204;19.774;2022-08-01T06:33:27;4.18;;;1.85;;
72960;SDS011;61141;46.204;19.774;2022-08-01T06:36:30;3.50;;;1.48;;
72960;SDS011;61141;46.204;19.774;2022-08-01T06:39:33;3.83;;;1.63;;
72960;SDS011;61141;46.204;19.774;2022-08-01T06:42:36;4.30;;;2.08;;
72960;SDS011;61141;46.204;19.774;2022-08-01T06:45:39;3.72;;;1.62;;
72960;SDS011;61141;46.204;19.774;2022-08-01T06:48:43;3.60;;;1.60;;
72960;SDS011;61141;46.204;19.774;2022-08-01T06:51:45;3.20;;;1.20;;
72960;SDS011;61141;46.204;19.774;2022-08-01T06:54:49;3.10;;;1.10;;
72960;SDS011;61141;46.204;19.774;2022-08-01T06:57:52;3.53;;;1.30;;
72960;SDS011;61141;46.204;19.774;2022-08-01T07:00:56;3.72;;;1.45;;
72960;SDS011;61141;46.204;19.774;2022-08-01T07:04:01;3.30;;;1.25;;
72960;SDS011;61141;46.204;19.774;2022-08-01T07:07:05;4.40;;;2.30;;
72960;SDS011;61141;46.204;19.774;2022-08-01T07:10:08;3.07;;;1.00;;
72960;SDS011;61141;46.204;19.774;2022-08-01T07:13:11;3.33;;;1.30;;
72960;SDS011;61141;46.204;19.774;2022-08-01T07:16:15;3.28;;;1.23;;
72960;SDS011;61141;46.204;19.774;2022-08-01T07:19:18;4.05;;;1.83;;
72960;SDS011;61141;46.204;19.774;2022-08-01T07:22:21;4.07;;;1.87;;
72960;SDS011;61141;46.204;19.774;2022-08-01T07:25:25;3.43;;;1.30;;
72960;SDS011;61141;46.204;19.774;2022-08-01T07:28:28;3.12;;;0.90;;
72960;SDS011;61141;46.204;19.774;2022-08-01T07:31:32;3.78;;;1.65;;
72960;SDS011;61141;46.204;19.774;2022-08-01T07:34:35;3.87;;;1.65;;
72960;SDS011;61141;46.204;19.774;2022-08-01T07:37:38;3.40;;;1.17;;
72960;SDS011;61141;46.204;19.774;2022-08-01T07:40:50;3.37;;;1.33;;
72960;SDS011;61141;46.204;19.774;2022-08-01T07:43:54;3.67;;;1.62;;
72960;SDS011;61141;46.204;19.774;2022-08-01T07:47:03;3.00;;;1.00;;
72960;SDS011;61141;46.204;19.774;2022-08-01T07:50:08;3.78;;;1.73;;
72960;SDS011;61141;46.204;19.774;2022-08-01T07:53:11;3.72;;;1.70;;
72960;SDS011;61141;46.204;19.774;2022-08-01T07:56:14;4.27;;;1.70;;
72960;SDS011;61141;46.204;19.774;2022-08-01T07:59:17;3.67;;;1.60;;
72960;SDS011;61141;46.204;19.774;2022-08-01T08:02:27;4.15;;;2.15;;
72960;SDS011;61141;46.204;19.774;2022-08-01T08:05:31;3.70;;;1.55;;
72960;SDS011;61141;46.204;19.774;2022-08-01T08:08:57;4.18;;;1.77;;
72960;SDS011;61141;46.204;19.774;2022-08-01T08:12:00;4.93;;;1.57;;
72960;SDS011;61141;46.204;19.774;2022-08-01T08:15:03;4.07;;;1.92;;
72960;SDS011;61141;46.204;19.774;2022-08-01T08:18:08;3.95;;;1.80;;
72960;SDS011;61141;46.204;19.774;2022-08-01T08:21:11;3.83;;;1.52;;
72960;SDS011;61141;46.204;19.774;2022-08-01T08:24:15;3.85;;;1.80;;
72960;SDS011;61141;46.204;19.774;2022-08-01T08:27:28;4.17;;;1.97;;
72960;SDS011;61141;46.204;19.774;2022-08-01T08:30:31;3.87;;;1.70;;
72960;SDS011;61141;46.204;19.774;2022-08-01T08:33:34;4.50;;;2.30;;
72960;SDS011;61141;46.204;19.774;2022-08-01T08:36:37;6.37;;;1.70;;
72960;SDS011;61141;46.204;19.774;2022-08-01T08:39:49;4.30;;;2.08;;
72960;SDS011;61141;46.204;19.774;2022-08-01T08:42:52;3.93;;;1.80;;
72960;SDS011;61141;46.204;19.774;2022-08-01T08:45:55;4.10;;;1.98;;
72960;SDS011;61141;46.204;19.774;2022-08-01T08:49:02;3.72;;;1.62;;
72960;SDS011;61141;46.204;19.774;2022-08-01T08:52:07;4.00;;;1.73;;
72960;SDS011;61141;46.204;19.774;2022-08-01T08:55:13;4.37;;;2.15;;
72960;SDS011;61141;46.204;19.774;2022-08-01T08:58:21;4.00;;;1.93;;
72960;SDS011;61141;46.204;19.774;2022-08-01T09:01:33;3.87;;;1.83;;
72960;SDS011;61141;46.204;19.774;2022-08-01T09:04:37;4.43;;;2.25;;
72960;SDS011;61141;46.204;19.774;2022-08-01T09:07:42;4.07;;;2.00;;
72960;SDS011;61141;46.204;19.774;2022-08-01T09:10:45;4.05;;;1.95;;
72960;SDS011;61141;46.204;19.774;2022-08-01T09:17:16;4.78;;;2.17;;
72960;SDS011;61141;46.204;19.774;2022-08-01T09:20:23;4.05;;;1.62;;
72960;SDS011;61141;46.204;19.774;2022-08-01T09:23:36;3.92;;;1.73;;
72960;SDS011;61141;46.204;19.774;2022-08-01T09:27:02;4.10;;;1.75;;
72960;SDS011;61141;46.204;19.774;2022-08-01T09:30:23;4.60;;;2.30;;
72960;SDS011;61141;46.204;19.774;2022-08-01T09:33:40;4.15;;;1.87;;
72960;SDS011;61141;46.204;19.774;2022-08-01T09:37:01;3.30;;;1.20;;
72960;SDS011;61141;46.204;19.774;2022-08-01T09:40:09;2.87;;;0.90;;
72960;SDS011;61141;46.204;19.774;2022-08-01T09:43:13;4.40;;;2.25;;
72960;SDS011;61141;46.204;19.774;2022-08-01T09:46:16;3.43;;;1.07;;
72960;SDS011;61141;46.204;19.774;2022-08-01T09:49:28;3.78;;;1.58;;
72960;SDS011;61141;46.204;19.774;2022-08-01T09:52:53;4.82;;;2.72;;
72960;SDS011;61141;46.204;19.774;2022-08-01T09:56:08;3.87;;;1.77;;
72960;SDS011;61141;46.204;19.774;2022-08-01T09:59:13;4.75;;;2.53;;
72960;SDS011;61141;46.204;19.774;2022-08-01T10:02:28;4.43;;;2.20;;
72960;SDS011;61141;46.204;19.774;2022-08-01T10:05:39;4.25;;;2.20;;
72960;SDS011;61141;46.204;19.774;2022-08-01T10:08:51;4.35;;;2.35;;
72960;SDS011;61141;46.204;19.774;2022-08-01T10:11:54;3.87;;;1.65;;
72960;SDS011;61141;46.204;19.774;2022-08-01T10:14:58;4.95;;;2.45;;
72960;SDS011;61141;46.204;19.774;2022-08-01T10:18:02;4.47;;;2.43;;
72960;SDS011;61141;46.204;19.774;2022-08-01T10:21:27;4.62;;;2.08;;
72960;SDS011;61141;46.204;19.774;2022-08-01T10:24:55;4.53;;;2.17;;
72960;SDS011;61141;46.204;19.774;2022-08-01T10:28:01;4.53;;;2.15;;
72960;SDS011;61141;46.204;19.774;2022-08-01T10:31:13;4.05;;;2.00;;
72960;SDS011;61141;46.204;19.774;2022-08-01T10:34:16;4.57;;;2.53;;
72960;SDS011;61141;46.204;19.774;2022-08-01T10:37:24;4.85;;;2.55;;
72960;SDS011;61141;46.204;19.774;2022-08-01T10:40:28;5.55;;;2.95;;
72960;SDS011;61141;46.204;19.774;2022-08-01T10:43:33;4.93;;;2.62;;
72960;SDS011;61141;46.204;19.774;2022-08-01T10:46:38;5.15;;;2.33;;
72960;SDS011;61141;46.204;19.774;2022-08-01T10:49:48;4.70;;;2.53;;
72960;SDS011;61141;46.204;19.774;2022-08-01T10:56:46;4.95;;;2.70;;
72960;SDS011;61141;46.204;19.774;2022-08-01T10:59:52;4.78;;;2.62;;
72960;SDS011;61141;46.204;19.774;2022-08-01T11:03:03;3.80;;;1.75;;
72960;SDS011;61141;46.204;19.774;2022-08-01T11:06:06;4.17;;;2.00;;
72960;SDS011;61141;46.204;19.774;2022-08-01T11:12:18;3.92;;;1.80;;
72960;SDS011;61141;46.204;19.774;2022-08-01T11:15:26;4.45;;;2.33;;
72960;SDS011;61141;46.204;19.774;2022-08-01T11:18:32;4.50;;;2.28;;
72960;SDS011;61141;46.204;19.774;2022-08-01T11:24:59;4.62;;;2.60;;
72960;SDS011;61141;46.204;19.774;2022-08-01T11:34:51;3.87;;;1.80;;
72960;SDS011;61141;46.204;19.774;2022-08-01T11:37:54;4.00;;;1.70;;
72960;SDS011;61141;46.204;19.774;2022-08-01T11:44:49;4.40;;;2.28;;
72960;SDS011;61141;46.204;19.774;2022-08-01T11:47:54;4.15;;;2.03;;
72960;SDS011;61141;46.204;19.774;2022-08-01T11:50:58;3.62;;;1.37;;
72960;SDS011;61141;46.204;19.774;2022-08-01T11:54:03;4.80;;;2.67;;
72960;SDS011;61141;46.204;19.774;2022-08-01T11:57:08;3.80;;;1.67;;
72960;SDS011;61141;46.204;19.774;2022-08-01T12:00:17;4.05;;;1.83;;
72960;SDS011;61141;46.204;19.774;2022-08-01T12:03:25;3.87;;;1.52;;
72960;SDS011;61141;46.204;19.774;2022-08-01T12:06:35;3.80;;;1.95;;
72960;SDS011;61141;46.204;19.774;2022-08-01T12:09:38;5.07;;;2.60;;
72960;SDS011;61141;46.204;19.774;2022-08-01T12:12:42;4.93;;;1.95;;
72960;SDS011;61141;46.204;19.774;2022-08-01T12:15:47;4.40;;;2.40;;
72960;SDS011;61141;46.204;19.774;2022-08-01T12:18:58;3.92;;;1.95;;
72960;SDS011;61141;46.204;19.774;2022-08-01T12:25:10;4.30;;;1.97;;
72960;SDS011;61141;46.204;19.774;2022-08-01T12:28:15;5.85;;;2.17;;
72960;SDS011;61141;46.204;19.774;2022-08-01T12:31:30;4.30;;;2.12;;
72960;SDS011;61141;46.204;19.774;2022-08-01T12:34:34;4.18;;;2.05;;
72960;SDS011;61141;46.204;19.774;2022-08-01T12:37:37;4.15;;;2.03;;
72960;SDS011;61141;46.204;19.774;2022-08-01T12:40:42;3.93;;;1.70;;
72960;SDS011;61141;46.204;19.774;2022-08-01T12:43:47;4.30;;;1.90;;
72960;SDS011;61141;46.204;19.774;2022-08-01T12:46:50;3.97;;;1.85;;
72960;SDS011;61141;46.204;19.774;2022-08-01T12:49:54;4.10;;;2.05;;
72960;SDS011;61141;46.204;19.774;2022-08-01T12:52:57;4.45;;;2.17;;
72960;SDS011;61141;46.204;19.774;2022-08-01T12:56:01;3.97;;;1.83;;
72960;SDS011;61141;46.204;19.774;2022-08-01T12:59:20;3.95;;;1.90;;
72960;SDS011;61141;46.204;19.774;2022-08-01T13:02:32;4.60;;;2.33;;
72960;SDS011;61141;46.204;19.774;2022-08-01T13:05:49;3.45;;;1.37;;
72960;SDS011;61141;46.204;19.774;2022-08-01T13:08:52;5.20;;;3.10;;
72960;SDS011;61141;46.204;19.774;2022-08-01T13:11:56;3.87;;;1.70;;
72960;SDS011;61141;46.204;19.774;2022-08-01T13:15:17;4.18;;;1.98;;
72960;SDS011;61141;46.204;19.774;2022-08-01T13:18:26;5.18;;;2.90;;
72960;SDS011;61141;46.204;19.774;2022-08-01T13:21:30;3.97;;;1.90;;
72960;SDS011;61141;46.204;19.774;2022-08-01T13:24:54;3.90;;;1.70;;
72960;SDS011;61141;46.204;19.774;2022-08-01T13:28:25;4.73;;;2.57;;
72960;SDS011;61141;46.204;19.774;2022-08-01T13:31:33;4.20;;;2.05;;
72960;SDS011;61141;46.204;19.774;2022-08-01T13:34:37;4.12;;;2.12;;
72960;SDS011;61141;46.204;19.774;2022-08-01T13:37:41;3.72;;;1.65;;
72960;SDS011;61141;46.204;19.774;2022-08-01T13:40:45;4.12;;;1.95;;
72960;SDS011;61141;46.204;19.774;2022-08-01T13:43:48;4.37;;;2.40;;
72960;SDS011;61141;46.204;19.774;2022-08-01T13:47:01;3.90;;;1.75;;
72960;SDS011;61141;46.204;19.774;2022-08-01T13:50:18;4.40;;;2.28;;
72960;SDS011;61141;46.204;19.774;2022-08-01T13:53:21;4.22;;;1.92;;
72960;SDS011;61141;46.204;19.774;2022-08-01T13:56:24;4.10;;;2.05;;
72960;SDS011;61141;46.204;19.774;2022-08-01T13:59:27;4.63;;;2.40;;
72960;SDS011;61141;46.204;19.774;2022-08-01T14:02:30;4.15;;;1.95;;
72960;SDS011;61141;46.204;19.774;2022-08-01T14:05:34;5.28;;;2.72;;
72960;SDS011;61141;46.204;19.774;2022-08-01T14:08:36;4.00;;;1.87;;
72960;SDS011;61141;46.204;19.774;2022-08-01T14:11:40;4.62;;;2.40;;
72960;SDS011;61141;46.204;19.774;2022-08-01T14:14:47;4.80;;;2.87;;
72960;SDS011;61141;46.204;19.774;2022-08-01T14:17:50;4.12;;;2.10;;
72960;SDS011;61141;46.204;19.774;2022-08-01T14:20:54;4.87;;;2.78;;
72960;SDS011;61141;46.204;19.774;2022-08-01T14:24:07;3.80;;;1.67;;
72960;SDS011;61141;46.204;19.774;2022-08-01T14:27:10;4.55;;;2.42;;
72960;SDS011;61141;46.204;19.774;2022-08-01T14:30:18;4.40;;;2.00;;
72960;SDS011;61141;46.204;19.774;2022-08-01T14:33:20;4.68;;;2.62;;
72960;SDS011;61141;46.204;19.774;2022-08-01T14:36:24;4.32;;;2.22;;
72960;SDS011;61141;46.204;19.774;2022-08-01T14:39:32;4.50;;;2.15;;
72960;SDS011;61141;46.204;19.774;2022-08-01T14:42:36;4.55;;;2.40;;
72960;SDS011;61141;46.204;19.774;2022-08-01T14:45:40;3.73;;;1.53;;
72960;SDS011;61141;46.204;19.774;2022-08-01T14:48:43;4.32;;;2.15;;
72960;SDS011;61141;46.204;19.774;2022-08-01T14:51:46;4.32;;;2.20;;
72960;SDS011;61141;46.204;19.774;2022-08-01T14:54:49;3.80;;;1.67;;
72960;SDS011;61141;46.204;19.774;2022-08-01T14:57:52;4.53;;;2.40;;
72960;SDS011;61141;46.204;19.774;2022-08-01T15:00:56;3.80;;;1.67;;
72960;SDS011;61141;46.204;19.774;2022-08-01T15:04:00;4.15;;;2.05;;
72960;SDS011;61141;46.204;19.774;2022-08-01T15:07:06;3.97;;;1.90;;
72960;SDS011;61141;46.204;19.774;2022-08-01T15:10:10;7.97;;;2.95;;
72960;SDS011;61141;46.204;19.774;2022-08-01T15:13:13;4.32;;;2.33;;
72960;SDS011;61141;46.204;19.774;2022-08-01T15:16:16;5.47;;;2.37;;
72960;SDS011;61141;46.204;19.774;2022-08-01T15:19:19;4.45;;;2.30;;
72960;SDS011;61141;46.204;19.774;2022-08-01T15:22:22;3.83;;;1.75;;
72960;SDS011;61141;46.204;19.774;2022-08-01T15:25:26;3.97;;;1.83;;
72960;SDS011;61141;46.204;19.774;2022-08-01T15:28:43;4.57;;;2.50;;
72960;SDS011;61141;46.204;19.774;2022-08-01T15:31:46;4.30;;;2.20;;
72960;SDS011;61141;46.204;19.774;2022-08-01T15:34:49;4.25;;;2.00;;
72960;SDS011;61141;46.204;19.774;2022-08-01T15:37:52;4.37;;;2.20;;
72960;SDS011;61141;46.204;19.774;2022-08-01T15:40:55;4.60;;;2.37;;
72960;SDS011;61141;46.204;19.774;2022-08-01T15:43:58;4.70;;;2.45;;
72960;SDS011;61141;46.204;19.774;2022-08-01T15:47:02;4.13;;;2.07;;
72960;SDS011;61141;46.204;19.774;2022-08-01T15:50:06;3.72;;;1.62;;
72960;SDS011;61141;46.204;19.774;2022-08-01T15:53:10;4.28;;;2.28;;
72960;SDS011;61141;46.204;19.774;2022-08-01T15:56:13;3.83;;;1.73;;
72960;SDS011;61141;46.204;19.774;2022-08-01T15:59:16;3.22;;;1.23;;
72960;SDS011;61141;46.204;19.774;2022-08-01T16:02:19;3.77;;;1.47;;
72960;SDS011;61141;46.204;19.774;2022-08-01T16:05:23;4.70;;;2.45;;
72960;SDS011;61141;46.204;19.774;2022-08-01T16:08:26;4.25;;;2.28;;
72960;SDS011;61141;46.204;19.774;2022-08-01T16:11:29;3.40;;;1.27;;
72960;SDS011;61141;46.204;19.774;2022-08-01T16:14:33;3.42;;;1.27;;
72960;SDS011;61141;46.204;19.774;2022-08-01T16:17:36;3.80;;;1.77;;
72960;SDS011;61141;46.204;19.774;2022-08-01T16:20:45;4.20;;;2.08;;
72960;SDS011;61141;46.204;19.774;2022-08-01T16:23:49;4.78;;;2.08;;
72960;SDS011;61141;46.204;19.774;2022-08-01T16:26:52;3.62;;;1.50;;
72960;SDS011;61141;46.204;19.774;2022-08-01T16:29:56;3.70;;;1.77;;
72960;SDS011;61141;46.204;19.774;2022-08-01T16:32:59;4.13;;;2.00;;
72960;SDS011;61141;46.204;19.774;2022-08-01T16:36:10;4.15;;;2.00;;
72960;SDS011;61141;46.204;19.774;2022-08-01T16:39:18;3.92;;;1.67;;
72960;SDS011;61141;46.204;19.774;2022-08-01T16:42:26;4.90;;;2.83;;
72960;SDS011;61141;46.204;19.774;2022-08-01T16:45:29;4.05;;;1.98;;
72960;SDS011;61141;46.204;19.774;2022-08-01T16:48:32;4.30;;;2.13;;
72960;SDS011;61141;46.204;19.774;2022-08-01T16:51:35;4.20;;;1.75;;
72960;SDS011;61141;46.204;19.774;2022-08-01T16:54:49;4.47;;;2.47;;
72960;SDS011;61141;46.204;19.774;2022-08-01T16:57:52;4.28;;;1.98;;
72960;SDS011;61141;46.204;19.774;2022-08-01T17:00:56;3.72;;;1.65;;
72960;SDS011;61141;46.204;19.774;2022-08-01T17:04:19;3.33;;;1.30;;
72960;SDS011;61141;46.204;19.774;2022-08-01T17:07:23;3.70;;;1.60;;
72960;SDS011;61141;46.204;19.774;2022-08-01T17:10:26;4.37;;;2.10;;
72960;SDS011;61141;46.204;19.774;2022-08-01T17:13:29;3.95;;;1.85;;
72960;SDS011;61141;46.204;19.774;2022-08-01T17:16:34;4.07;;;1.95;;
72960;SDS011;61141;46.204;19.774;2022-08-01T17:19:38;3.63;;;1.30;;
72960;SDS011;61141;46.204;19.774;2022-08-01T17:22:41;4.00;;;1.55;;
72960;SDS011;61141;46.204;19.774;2022-08-01T17:25:44;4.15;;;2.00;;
72960;SDS011;61141;46.204;19.774;2022-08-01T17:28:47;3.97;;;1.87;;
72960;SDS011;61141;46.204;19.774;2022-08-01T17:31:50;4.40;;;2.25;;
72960;SDS011;61141;46.204;19.774;2022-08-01T17:34:53;3.97;;;1.83;;
72960;SDS011;61141;46.204;19.774;2022-08-01T17:37:56;5.72;;;2.67;;
72960;SDS011;61141;46.204;19.774;2022-08-01T17:40:59;4.55;;;2.40;;
72960;SDS011;61141;46.204;19.774;2022-08-01T17:44:02;4.57;;;2.33;;
72960;SDS011;61141;46.204;19.774;2022-08-01T17:47:05;5.07;;;2.58;;
72960;SDS011;61141;46.204;19.774;2022-08-01T17:50:10;3.90;;;1.80;;
72960;SDS011;61141;46.204;19.774;2022-08-01T17:53:14;3.85;;;1.85;;
72960;SDS011;61141;46.204;19.774;2022-08-01T17:56:23;4.10;;;1.83;;
72960;SDS011;61141;46.204;19.774;2022-08-01T17:59:27;3.47;;;1.42;;
72960;SDS011;61141;46.204;19.774;2022-08-01T18:02:30;4.15;;;2.12;;
72960;SDS011;61141;46.204;19.774;2022-08-01T18:05:33;4.20;;;2.10;;
72960;SDS011;61141;46.204;19.774;2022-08-01T18:08:38;3.22;;;1.17;;
72960;SDS011;61141;46.204;19.774;2022-08-01T18:11:45;3.87;;;1.75;;
72960;SDS011;61141;46.204;19.774;2022-08-01T18:14:48;3.90;;;1.67;;
72960;SDS011;61141;46.204;19.774;2022-08-01T18:17:51;3.95;;;1.67;;
72960;SDS011;61141;46.204;19.774;2022-08-01T18:20:54;3.93;;;1.93;;
72960;SDS011;61141;46.204;19.774;2022-08-01T18:23:59;3.58;;;1.55;;
72960;SDS011;61141;46.204;19.774;2022-08-01T18:27:02;3.92;;;1.83;;
72960;SDS011;61141;46.204;19.774;2022-08-01T18:30:07;3.58;;;1.60;;
72960;SDS011;61141;46.204;19.774;2022-08-01T18:33:10;4.15;;;2.12;;
72960;SDS011;61141;46.204;19.774;2022-08-01T18:36:17;3.20;;;1.13;;
72960;SDS011;61141;46.204;19.774;2022-08-01T18:39:35;3.65;;;1.48;;
72960;SDS011;61141;46.204;19.774;2022-08-01T18:42:40;3.70;;;1.60;;
72960;SDS011;61141;46.204;19.774;2022-08-01T18:45:43;3.92;;;1.75;;
72960;SDS011;61141;46.204;19.774;2022-08-01T18:48:47;3.97;;;1.77;;
72960;SDS011;61141;46.204;19.774;2022-08-01T18:51:50;3.47;;;1.47;;
72960;SDS011;61141;46.204;19.774;2022-08-01T18:54:53;3.85;;;1.52;;
72960;SDS011;61141;46.204;19.774;2022-08-01T18:57:56;3.33;;;1.25;;
72960;SDS011;61141;46.204;19.774;2022-08-01T19:00:59;3.50;;;1.45;;